Time;durP1;ratioP1;P1;durP2;ratioP2;P2;SDS_P1;SDS_P2;PMS_P1;PMS_P2;Temp;Humidity;BMP_temperature;BMP_pressure;BME280_temperature;BME280_humidity;BME280_pressure;Samples;Min_cycle;Max_cycle;Signal;HPM_P1;HPM_P2
2023/01/10 00:01:21;;;;;;;3.47;2.27;;;7.40;99.90;;;;;;5017527;28;20207;-63
2023/01/10 00:03:46;;;;;;;2.93;2.40;;;7.30;99.90;;;;;;5020250;28;20267;-64
2023/01/10 00:06:12;;;;;;;3.10;2.90;;;7.30;99.90;;;;;;5016760;28;20468;-63
2023/01/10 00:08:38;;;;;;;3.20;2.60;;;7.40;99.90;;;;;;5019156;28;20218;-63
2023/01/10 00:13:22;;;;;;;2.70;2.50;;;7.30;99.90;;;;;;5032785;28;20644;-63
2023/01/10 00:13:52;;;;;;;3.83;2.63;;;7.30;99.90;;;;;;5024958;28;20841;-63
2023/01/10 00:16:18;;;;;;;2.93;2.40;;;7.30;99.90;;;;;;5028236;28;20205;-64
2023/01/10 00:18:43;;;;;;;2.33;2.13;;;7.30;99.90;;;;;;5037103;28;20199;-64
2023/01/10 00:21:09;;;;;;;2.80;2.60;;;7.30;99.90;;;;;;5039423;28;20598;-66
2023/01/10 00:23:34;;;;;;;2.40;2.20;;;7.30;99.90;;;;;;5031111;28;20209;-62
2023/01/10 00:26:00;;;;;;;3.57;2.03;;;7.30;99.90;;;;;;5038353;28;20199;-62
2023/01/10 00:28:25;;;;;;;2.43;2.23;;;7.30;99.90;;;;;;5035726;28;20559;-63
2023/01/10 00:31:00;;;;;;;2.03;1.83;;;7.30;99.90;;;;;;5038223;28;20717;-63
2023/01/10 00:33:26;;;;;;;2.57;2.20;;;7.30;99.90;;;;;;5036964;28;20694;-65
2023/01/10 00:35:52;;;;;;;2.30;2.10;;;7.20;99.90;;;;;;5039138;28;20211;-63
2023/01/10 00:38:17;;;;;;;4.40;2.70;;;7.20;99.90;;;;;;5034280;28;20670;-63
2023/01/10 00:40:44;;;;;;;6.93;2.50;;;7.20;99.90;;;;;;5038750;28;20213;-62
2023/01/10 00:45:54;;;;;;;5.23;2.57;;;7.20;99.90;;;;;;5038723;28;20226;-63
2023/01/10 00:48:19;;;;;;;2.93;2.20;;;7.10;99.90;;;;;;5038931;28;20203;-63
2023/01/10 00:50:45;;;;;;;4.40;2.77;;;7.10;99.90;;;;;;5027444;28;20187;-62
2023/01/10 00:53:11;;;;;;;3.60;2.83;;;7.10;99.90;;;;;;5009049;28;20694;-62
2023/01/10 00:55:36;;;;;;;3.30;2.63;;;7.10;99.90;;;;;;5016191;28;20211;-63
2023/01/10 00:58:02;;;;;;;2.53;2.33;;;7.10;99.90;;;;;;5038152;28;20261;-63
2023/01/10 01:00:28;;;;;;;3.03;2.40;;;7.10;99.90;;;;;;5033983;28;20210;-63
2023/01/10 01:02:54;;;;;;;4.23;2.40;;;7.10;99.90;;;;;;5038829;28;20195;-63
2023/01/10 01:05:20;;;;;;;2.90;2.70;;;7.10;99.90;;;;;;5038828;28;20272;-64
2023/01/10 01:07:49;;;;;;;3.40;2.60;;;7.00;99.90;;;;;;5036798;28;20195;-65
2023/01/10 01:10:27;;;;;;;2.43;2.23;;;7.00;99.90;;;;;;5038263;28;20190;-64
2023/01/10 01:12:54;;;;;;;2.93;2.60;;;7.00;99.90;;;;;;5037448;28;20201;-65
2023/01/10 01:15:20;;;;;;;2.47;2.27;;;7.00;99.90;;;;;;5037690;28;20276;-64
2023/01/10 01:17:46;;;;;;;4.03;2.40;;;6.90;99.90;;;;;;5038501;28;20211;-65
2023/01/10 01:20:12;;;;;;;5.80;2.40;;;6.80;99.90;;;;;;5038654;28;20682;-64
2023/01/10 01:22:37;;;;;;;2.80;2.60;;;6.80;99.90;;;;;;5038123;28;20536;-64
2023/01/10 01:25:03;;;;;;;4.03;2.60;;;6.70;99.90;;;;;;5037407;28;20215;-64
2023/01/10 01:27:30;;;;;;;5.47;2.90;;;6.70;99.90;;;;;;5036279;28;20202;-63
2023/01/10 01:29:55;;;;;;;2.53;2.33;;;6.60;99.90;;;;;;5037995;28;20199;-63
2023/01/10 01:32:21;;;;;;;2.73;2.53;;;6.60;99.90;;;;;;5037929;28;20207;-63
2023/01/10 01:34:47;;;;;;;4.87;2.60;;;6.50;99.90;;;;;;5032056;28;20190;-63
2023/01/10 01:37:12;;;;;;;4.30;2.73;;;6.50;99.90;;;;;;5038043;28;20563;-63
2023/01/10 01:39:37;;;;;;;3.23;2.70;;;6.40;99.90;;;;;;5036677;28;20199;-63
2023/01/10 01:42:05;;;;;;;3.37;2.87;;;6.30;99.90;;;;;;5023673;28;20830;-62
2023/01/10 01:44:34;;;;;;;5.17;3.07;;;6.30;99.90;;;;;;5033280;28;20204;-63
2023/01/10 01:47:06;;;;;;;3.07;2.80;;;6.30;99.90;;;;;;5038098;28;20214;-63
2023/01/10 01:49:36;;;;;;;4.77;2.90;;;6.30;99.90;;;;;;5033108;28;20586;-64
2023/01/10 01:52:25;;;;;;;3.87;3.40;;;6.20;99.90;;;;;;5036950;28;20203;-63
2023/01/10 01:54:55;;;;;;;2.93;2.63;;;6.20;99.90;;;;;;5025345;28;20211;-63
2023/01/10 01:57:24;;;;;;;5.37;2.93;;;6.10;99.90;;;;;;5027757;28;20211;-63
2023/01/10 01:59:52;;;;;;;3.67;3.20;;;6.20;99.90;;;;;;5029486;28;20207;-63
2023/01/10 02:02:25;;;;;;;3.23;3.00;;;6.10;99.90;;;;;;5036331;28;20198;-63
2023/01/10 02:04:53;;;;;;;3.47;3.17;;;6.10;99.90;;;;;;5027711;28;20215;-65
2023/01/10 02:07:19;;;;;;;6.97;3.23;;;6.00;99.90;;;;;;5027989;28;20215;-64
2023/01/10 02:09:51;;;;;;;3.47;3.00;;;6.00;99.90;;;;;;5027880;28;20199;-63
2023/01/10 02:12:17;;;;;;;3.40;3.10;;;6.00;99.90;;;;;;5025771;28;20191;-63
2023/01/10 02:14:44;;;;;;;4.97;3.70;;;6.00;99.90;;;;;;5032418;28;20230;-63
2023/01/10 02:17:10;;;;;;;7.77;4.10;;;6.00;99.90;;;;;;5026288;28;20207;-64
2023/01/10 02:19:51;;;;;;;5.97;4.10;;;6.00;99.90;;;;;;5026324;28;20200;-64
2023/01/10 02:23:08;;;;;;;4.30;3.60;;;6.10;99.90;;;;;;5020360;28;20208;-63
2023/01/10 02:25:57;;;;;;;4.20;3.00;;;6.20;99.90;;;;;;5012107;28;20224;-63
2023/01/10 02:28:37;;;;;;;5.00;3.60;;;6.30;99.90;;;;;;5027226;28;20203;-64
2023/01/10 02:31:30;;;;;;;5.37;3.63;;;6.30;99.90;;;;;;5026472;28;20297;-63
2023/01/10 02:34:06;;;;;;;3.20;2.90;;;6.40;99.90;;;;;;5020401;28;20195;-62
2023/01/10 02:36:50;;;;;;;3.80;3.00;;;6.40;99.90;;;;;;5027681;28;20203;-63
2023/01/10 02:39:38;;;;;;;3.27;3.00;;;6.40;99.90;;;;;;5024411;28;20210;-63
2023/01/10 02:42:07;;;;;;;4.13;2.77;;;6.40;99.90;;;;;;5020755;28;20328;-63
2023/01/10 02:44:44;;;;;;;4.03;2.83;;;6.40;99.90;;;;;;5027540;28;20526;-63
2023/01/10 02:47:13;;;;;;;2.87;2.53;;;6.40;99.90;;;;;;5022247;28;20197;-76
2023/01/10 02:49:46;;;;;;;4.67;2.60;;;6.40;99.90;;;;;;5029616;28;20754;-77
2023/01/10 02:52:24;;;;;;;3.83;2.50;;;6.50;99.90;;;;;;5028910;28;20227;-77
2023/01/10 02:54:54;;;;;;;4.10;2.23;;;6.60;99.90;;;;;;5021209;28;20198;-76
2023/01/10 02:57:40;;;;;;;3.33;2.90;;;6.60;99.90;;;;;;5031367;28;20596;-76
2023/01/10 03:00:24;;;;;;;4.57;2.57;;;6.70;99.90;;;;;;5026105;28;20236;-78
2023/01/10 03:03:16;;;;;;;3.47;2.80;;;6.70;99.90;;;;;;5026538;28;20290;-77
2023/01/10 03:05:54;;;;;;;3.03;2.47;;;6.60;99.90;;;;;;5027682;28;20593;-77
2023/01/10 03:08:31;;;;;;;5.60;3.27;;;6.50;99.90;;;;;;5020404;28;20678;-76
2023/01/10 03:11:00;;;;;;;3.57;3.20;;;6.50;99.90;;;;;;5023035;28;20194;-78
2023/01/10 03:13:53;;;;;;;5.20;3.97;;;6.50;99.90;;;;;;5019490;28;20700;-78
2023/01/10 03:16:25;;;;;;;8.73;3.30;;;6.50;99.90;;;;;;5022257;28;20208;-76
2023/01/10 03:18:55;;;;;;;3.67;3.20;;;6.50;99.90;;;;;;5030401;28;20711;-76
2023/01/10 03:21:23;;;;;;;4.90;3.10;;;6.50;99.90;;;;;;5028442;28;20298;-77
2023/01/10 03:23:52;;;;;;;4.13;3.20;;;6.50;99.90;;;;;;5031179;28;20624;-75
2023/01/10 03:26:26;;;;;;;4.73;3.17;;;6.60;99.90;;;;;;5022214;28;20227;-76
2023/01/10 03:28:59;;;;;;;7.07;3.20;;;6.60;99.90;;;;;;5026946;28;20208;-76
2023/01/10 03:31:35;;;;;;;3.43;3.13;;;6.60;99.90;;;;;;5024535;28;20199;-76
2023/01/10 03:34:01;;;;;;;5.60;3.30;;;6.60;99.90;;;;;;5028356;28;20206;-77
2023/01/10 03:36:31;;;;;;;3.93;3.40;;;6.60;99.90;;;;;;5018674;28;20204;-78
2023/01/10 03:39:20;;;;;;;5.80;3.53;;;6.60;99.90;;;;;;5019876;28;20233;-78
2023/01/10 03:41:52;;;;;;;3.90;3.37;;;6.60;99.90;;;;;;5025109;28;20293;-76
2023/01/10 03:44:43;;;;;;;4.50;4.00;;;6.60;99.90;;;;;;5028765;28;20222;-74
2023/01/10 03:47:19;;;;;;;5.43;3.50;;;6.60;99.90;;;;;;5026339;28;20205;-74
2023/01/10 03:49:48;;;;;;;6.27;3.57;;;6.60;99.90;;;;;;5025716;28;20199;-73
2023/01/10 03:52:16;;;;;;;6.50;4.20;;;6.70;99.90;;;;;;5017775;28;20207;-76
2023/01/10 03:54:43;;;;;;;5.77;3.60;;;6.60;99.90;;;;;;5027604;28;20200;-75
2023/01/10 03:57:19;;;;;;;3.77;3.43;;;6.60;99.90;;;;;;5027519;28;20665;-73
2023/01/10 03:59:44;;;;;;;9.47;3.90;;;6.60;99.90;;;;;;5025165;28;20759;-73
2023/01/10 04:02:10;;;;;;;4.63;4.23;;;6.50;99.90;;;;;;5026490;28;20210;-73
2023/01/10 04:04:36;;;;;;;4.67;3.97;;;6.50;99.90;;;;;;5026191;28;20631;-73
2023/01/10 04:07:01;;;;;;;6.27;4.17;;;6.50;99.90;;;;;;5026398;28;20298;-72
2023/01/10 04:09:27;;;;;;;9.63;4.47;;;6.50;99.90;;;;;;5026104;28;20202;-73
2023/01/10 04:11:52;;;;;;;8.20;5.10;;;6.60;99.90;;;;;;5035276;28;20195;-73
2023/01/10 04:14:18;;;;;;;6.90;4.43;;;6.60;99.90;;;;;;5036603;28;20241;-74
2023/01/10 04:16:44;;;;;;;5.17;4.50;;;6.60;99.90;;;;;;5027413;28;20207;-73
2023/01/10 04:19:09;;;;;;;8.37;5.77;;;6.60;99.90;;;;;;5025832;28;20202;-74
2023/01/10 04:21:35;;;;;;;8.93;5.00;;;6.60;99.90;;;;;;5021578;28;20506;-74
2023/01/10 04:24:00;;;;;;;6.80;5.43;;;6.60;99.90;;;;;;5031230;28;20252;-75
2023/01/10 04:26:26;;;;;;;7.50;4.97;;;6.60;99.90;;;;;;5037821;28;20732;-73
2023/01/10 04:28:51;;;;;;;6.93;4.53;;;6.70;99.90;;;;;;5028281;28;20198;-73
2023/01/10 04:31:16;;;;;;;8.30;4.83;;;6.60;99.90;;;;;;5035123;28;20576;-73
2023/01/10 04:33:42;;;;;;;7.93;5.27;;;6.60;99.90;;;;;;5038357;28;20199;-76
2023/01/10 04:36:08;;;;;;;9.37;6.30;;;6.60;99.90;;;;;;5039847;28;20211;-74
2023/01/10 04:38:33;;;;;;;7.63;5.83;;;6.60;99.90;;;;;;5027811;28;20210;-76
2023/01/10 04:40:58;;;;;;;9.40;5.13;;;6.50;99.90;;;;;;5024019;28;20295;-76
2023/01/10 04:43:24;;;;;;;7.87;5.47;;;6.40;99.90;;;;;;5037602;28;20236;-77
2023/01/10 04:45:50;;;;;;;7.73;5.70;;;6.40;99.90;;;;;;5040434;28;20218;-76
2023/01/10 04:48:16;;;;;;;10.23;5.30;;;6.50;99.90;;;;;;5041528;28;20208;-81
2023/01/10 04:50:41;;;;;;;8.53;5.33;;;6.50;99.90;;;;;;5023808;28;20213;-80
2023/01/10 04:53:07;;;;;;;8.93;5.13;;;6.50;99.90;;;;;;5024172;28;20244;-75
2023/01/10 04:55:33;;;;;;;7.10;5.63;;;6.50;99.90;;;;;;5030351;28;20325;-76
2023/01/10 04:58:01;;;;;;;9.93;6.03;;;6.40;99.90;;;;;;5029512;28;20203;-74
2023/01/10 05:00:26;;;;;;;13.63;6.13;;;6.40;99.90;;;;;;5031664;28;20926;-74
2023/01/10 05:02:56;;;;;;;9.67;6.23;;;6.40;99.90;;;;;;5031943;28;20195;-74
2023/01/10 05:05:22;;;;;;;9.93;6.27;;;6.40;99.90;;;;;;5040105;28;20600;-75
2023/01/10 05:07:47;;;;;;;6.43;5.77;;;6.40;99.90;;;;;;5037794;28;20231;-74
2023/01/10 05:10:13;;;;;;;6.97;4.67;;;6.50;99.90;;;;;;5027879;28;20661;-76
2023/01/10 05:12:39;;;;;;;9.80;5.40;;;6.50;99.90;;;;;;5031301;28;20199;-75
2023/01/10 05:15:05;;;;;;;10.27;5.33;;;6.50;99.90;;;;;;5039573;28;20256;-74
2023/01/10 05:17:30;;;;;;;6.33;4.83;;;6.50;99.90;;;;;;5039946;28;20828;-74
2023/01/10 05:19:56;;;;;;;12.17;5.70;;;6.60;99.90;;;;;;5034903;28;20203;-75
2023/01/10 05:22:21;;;;;;;8.77;4.67;;;6.60;99.90;;;;;;5033093;28;20215;-75
2023/01/10 05:24:47;;;;;;;10.47;5.40;;;6.60;99.90;;;;;;5031134;28;20587;-74
2023/01/10 05:27:12;;;;;;;14.73;5.47;;;6.60;99.90;;;;;;5041469;28;20195;-74
2023/01/10 05:29:38;;;;;;;11.97;5.67;;;6.60;99.90;;;;;;5037571;28;20196;-74
2023/01/10 05:32:03;;;;;;;4.70;4.10;;;6.60;99.90;;;;;;5030877;28;20199;-73
2023/01/10 05:34:29;;;;;;;10.03;5.13;;;6.60;99.90;;;;;;5028224;28;20264;-73
2023/01/10 05:36:54;;;;;;;9.47;5.73;;;6.60;99.90;;;;;;5034805;28;20700;-74
2023/01/10 05:39:20;;;;;;;8.93;5.80;;;6.60;99.90;;;;;;5036441;28;20203;-72
2023/01/10 05:41:46;;;;;;;9.07;5.97;;;6.60;99.90;;;;;;5036052;28;20230;-73
2023/01/10 05:44:11;;;;;;;9.80;6.30;;;6.70;99.90;;;;;;5037071;28;20205;-73
2023/01/10 05:46:37;;;;;;;11.57;5.87;;;6.70;99.90;;;;;;5040776;28;20375;-77
2023/01/10 05:49:02;;;;;;;8.10;5.23;;;6.70;99.90;;;;;;5034508;28;20204;-76
2023/01/10 05:51:28;;;;;;;11.27;5.23;;;6.70;99.90;;;;;;5040391;28;20206;-77
2023/01/10 05:53:53;;;;;;;10.37;5.93;;;6.70;99.90;;;;;;5039950;28;20237;-75
2023/01/10 05:56:19;;;;;;;7.53;5.33;;;6.70;99.90;;;;;;5040167;28;20648;-74
2023/01/10 05:58:45;;;;;;;11.33;5.70;;;6.70;99.90;;;;;;5033396;28;20271;-75
2023/01/10 06:01:10;;;;;;;9.47;5.20;;;6.70;99.90;;;;;;5041716;28;20226;-73
2023/01/10 06:03:36;;;;;;;10.80;7.27;;;6.70;99.90;;;;;;5035532;28;20200;-71
2023/01/10 06:06:04;;;;;;;12.23;6.43;;;6.70;99.90;;;;;;5046273;28;20486;-71
2023/01/10 06:08:30;;;;;;;10.43;5.87;;;6.70;99.90;;;;;;5050964;28;20191;-72
2023/01/10 06:10:55;;;;;;;10.33;6.40;;;6.70;99.90;;;;;;5052391;28;20187;-71
2023/01/10 06:13:21;;;;;;;10.17;7.37;;;6.80;99.90;;;;;;5048529;28;20793;-71
2023/01/10 06:15:47;;;;;;;12.73;6.67;;;6.70;99.90;;;;;;5047122;28;20194;-72
2023/01/10 06:18:13;;;;;;;14.50;6.33;;;6.70;99.90;;;;;;5052907;28;20497;-75
2023/01/10 06:20:40;;;;;;;12.33;5.57;;;6.80;99.90;;;;;;5059067;28;20771;-73
2023/01/10 06:23:06;;;;;;;10.13;5.73;;;6.80;99.90;;;;;;5047432;28;20404;-72
2023/01/10 06:25:32;;;;;;;14.10;6.63;;;6.80;99.90;;;;;;5052396;28;20222;-73
2023/01/10 06:27:58;;;;;;;8.50;5.77;;;6.80;99.90;;;;;;5047166;28;20202;-72
2023/01/10 06:30:24;;;;;;;13.03;6.33;;;6.70;99.90;;;;;;5047344;28;20186;-71
2023/01/10 06:32:49;;;;;;;16.87;6.20;;;6.70;99.90;;;;;;5046631;28;20210;-71
2023/01/10 06:35:16;;;;;;;13.67;7.07;;;6.70;99.90;;;;;;5048999;28;20191;-73
2023/01/10 06:37:42;;;;;;;14.17;6.40;;;6.80;99.90;;;;;;5041251;28;20245;-72
2023/01/10 06:40:08;;;;;;;23.73;8.17;;;6.80;99.90;;;;;;5043031;28;20202;-71
2023/01/10 06:42:34;;;;;;;13.90;6.20;;;6.80;99.90;;;;;;5048188;28;20295;-76
2023/01/10 06:44:59;;;;;;;17.07;7.00;;;6.80;99.90;;;;;;5053795;28;20207;-77
2023/01/10 06:47:25;;;;;;;12.60;6.77;;;6.80;99.90;;;;;;5054054;28;20171;-77
2023/01/10 06:49:50;;;;;;;9.90;6.03;;;6.90;99.90;;;;;;5061301;28;20171;-75
2023/01/10 06:52:16;;;;;;;8.90;5.83;;;6.90;99.90;;;;;;5057457;28;20198;-76
2023/01/10 06:54:41;;;;;;;10.20;6.03;;;6.90;99.90;;;;;;5056587;28;20262;-75
2023/01/10 06:57:07;;;;;;;11.53;6.90;;;6.90;99.90;;;;;;5055391;28;20288;-73
2023/01/10 06:59:33;;;;;;;9.80;6.20;;;6.90;99.90;;;;;;5053004;28;20202;-73
2023/01/10 07:01:58;;;;;;;10.07;5.30;;;6.90;99.90;;;;;;5048744;28;20198;-73
2023/01/10 07:04:25;;;;;;;10.80;5.07;;;6.80;99.90;;;;;;5046334;28;20257;-73
2023/01/10 07:06:51;;;;;;;9.37;6.10;;;6.80;99.90;;;;;;5048945;28;20268;-72
2023/01/10 07:09:16;;;;;;;12.53;5.87;;;6.80;99.90;;;;;;5038764;28;20231;-72
2023/01/10 07:11:42;;;;;;;11.57;7.20;;;6.80;99.90;;;;;;5045469;28;20191;-76
2023/01/10 07:14:08;;;;;;;9.80;5.13;;;6.80;99.90;;;;;;5047622;28;20195;-74
2023/01/10 07:16:34;;;;;;;9.00;5.93;;;6.70;99.90;;;;;;5043698;28;20649;-72
2023/01/10 07:19:00;;;;;;;10.30;6.17;;;6.70;99.90;;;;;;5051915;28;20406;-75
2023/01/10 07:21:25;;;;;;;12.50;7.07;;;6.60;99.90;;;;;;5054178;28;20203;-74
2023/01/10 07:23:51;;;;;;;13.73;6.83;;;6.50;99.90;;;;;;5040577;28;20219;-73
2023/01/10 07:26:18;;;;;;;10.90;6.87;;;6.50;99.90;;;;;;5036954;28;20237;-73
2023/01/10 07:28:46;;;;;;;9.03;6.93;;;6.40;99.90;;;;;;5050375;28;20198;-73
2023/01/10 07:31:12;;;;;;;13.27;6.90;;;6.40;99.90;;;;;;5055349;28;20220;-75
2023/01/10 07:33:38;;;;;;;15.77;7.13;;;6.30;99.90;;;;;;5045178;28;20229;-74
2023/01/10 07:36:04;;;;;;;13.87;7.53;;;6.30;99.90;;;;;;5049908;28;20203;-72
2023/01/10 07:38:29;;;;;;;18.73;8.13;;;6.30;99.90;;;;;;5045468;28;20305;-72
2023/01/10 07:40:55;;;;;;;10.63;7.63;;;6.30;99.90;;;;;;5049099;28;20207;-75
2023/01/10 07:43:20;;;;;;;13.07;8.10;;;6.30;99.90;;;;;;5030727;28;20220;-74
2023/01/10 07:45:46;;;;;;;13.90;7.00;;;6.30;99.90;;;;;;5032314;28;20206;-74
2023/01/10 07:48:11;;;;;;;13.50;8.77;;;6.30;99.90;;;;;;5031053;28;20203;-76
2023/01/10 07:50:37;;;;;;;10.40;7.10;;;6.20;99.90;;;;;;5027452;28;20248;-78
2023/01/10 07:53:05;;;;;;;12.60;7.23;;;6.20;99.90;;;;;;5008415;28;20543;-75
2023/01/10 07:55:33;;;;;;;20.00;7.80;;;6.20;99.90;;;;;;5009291;28;20212;-77
2023/01/10 07:57:59;;;;;;;16.33;7.13;;;6.20;99.90;;;;;;5008514;28;20303;-74
2023/01/10 08:00:25;;;;;;;12.70;7.53;;;6.20;99.90;;;;;;5010338;28;20294;-76
2023/01/10 08:02:54;;;;;;;12.73;8.27;;;6.20;99.90;;;;;;5035093;28;20202;-77
2023/01/10 08:05:21;;;;;;;14.47;7.60;;;6.30;99.90;;;;;;5026887;28;20229;-77
2023/01/10 08:07:47;;;;;;;13.13;7.23;;;6.40;99.90;;;;;;5039182;28;20608;-77
2023/01/10 08:10:13;;;;;;;16.30;9.57;;;6.50;99.90;;;;;;5039078;28;20312;-77
2023/01/10 08:12:38;;;;;;;12.37;8.00;;;6.60;99.90;;;;;;5030976;28;20190;-76
2023/01/10 08:15:04;;;;;;;15.43;8.03;;;6.80;99.90;;;;;;5036394;28;20241;-58
2023/01/10 08:17:33;;;;;;;12.97;7.97;;;7.10;99.90;;;;;;5019888;28;20278;-57
2023/01/10 08:19:58;;;;;;;17.10;7.80;;;7.20;99.90;;;;;;5013412;28;20288;-56
2023/01/10 08:22:23;;;;;;;11.40;7.23;;;7.40;99.90;;;;;;5026748;28;20330;-57
2023/01/10 08:24:49;;;;;;;11.97;6.97;;;7.40;99.90;;;;;;5026962;28;20623;-57
2023/01/10 08:27:14;;;;;;;13.30;7.33;;;7.50;99.90;;;;;;5027392;28;20196;-58
2023/01/10 08:29:41;;;;;;;12.87;6.03;;;7.60;99.90;;;;;;5027647;28;20210;-57
2023/01/10 08:32:07;;;;;;;13.20;6.40;;;7.60;99.90;;;;;;5027792;28;20811;-58
2023/01/10 08:34:32;;;;;;;9.67;6.63;;;7.70;99.90;;;;;;5027923;28;20203;-58
2023/01/10 08:36:58;;;;;;;11.50;6.87;;;7.70;99.90;;;;;;5026040;28;20467;-57
2023/01/10 08:39:25;;;;;;;10.83;6.47;;;7.80;99.90;;;;;;5032927;28;20202;-57
2023/01/10 08:41:51;;;;;;;12.47;6.17;;;7.80;99.90;;;;;;5030744;28;20230;-57
2023/01/10 08:44:17;;;;;;;10.27;6.80;;;7.80;99.90;;;;;;5027622;28;20357;-57
2023/01/10 08:46:42;;;;;;;8.70;6.63;;;7.70;99.90;;;;;;5029195;28;20214;-56
2023/01/10 08:49:08;;;;;;;14.50;7.50;;;7.80;99.90;;;;;;5034054;28;20199;-56
2023/01/10 08:51:34;;;;;;;9.53;6.53;;;7.80;99.90;;;;;;5024044;28;20650;-57
2023/01/10 08:53:59;;;;;;;12.83;6.83;;;7.80;99.90;;;;;;5011810;28;20660;-57
2023/01/10 08:56:25;;;;;;;13.53;7.83;;;7.80;99.90;;;;;;5032845;28;20207;-56
2023/01/10 08:58:50;;;;;;;12.50;6.63;;;7.80;99.90;;;;;;5028125;28;20200;-57
2023/01/10 09:01:16;;;;;;;12.10;6.57;;;7.90;99.90;;;;;;5036366;28;20876;-57
2023/01/10 09:03:42;;;;;;;13.60;7.53;;;7.90;99.90;;;;;;5026987;28;20393;-57
2023/01/10 09:06:08;;;;;;;9.97;6.80;;;7.90;99.90;;;;;;5022924;28;20264;-56
2023/01/10 09:08:34;;;;;;;8.67;6.47;;;7.90;99.90;;;;;;5020182;28;20207;-58
2023/01/10 09:11:00;;;;;;;11.53;5.93;;;7.80;99.90;;;;;;5028898;28;20735;-73
2023/01/10 09:13:27;;;;;;;12.70;6.40;;;7.90;99.90;;;;;;5030950;28;20215;-78
2023/01/10 09:15:53;;;;;;;11.73;6.87;;;8.00;99.90;;;;;;5027659;28;20206;-71
2023/01/10 09:18:18;;;;;;;8.63;6.40;;;8.00;99.90;;;;;;5026939;28;20206;-72
2023/01/10 09:20:45;;;;;;;10.93;6.37;;;8.00;99.90;;;;;;5035791;28;20479;-70
2023/01/10 09:23:16;;;;;;;9.07;6.20;;;7.90;99.90;;;;;;5037907;28;20707;-71
2023/01/10 09:25:42;;;;;;;9.07;5.97;;;7.90;99.90;;;;;;5028026;28;20363;-72
2023/01/10 09:28:08;;;;;;;10.80;6.23;;;7.90;99.90;;;;;;5027998;28;20218;-70
2023/01/10 09:30:34;;;;;;;9.67;6.53;;;8.10;99.90;;;;;;5015433;28;20231;-71
2023/01/10 09:33:00;;;;;;;14.00;7.20;;;8.20;99.90;;;;;;5014507;28;20188;-70
2023/01/10 09:35:27;;;;;;;9.47;7.00;;;8.10;99.90;;;;;;5014417;28;20204;-70
2023/01/10 09:37:54;;;;;;;10.80;6.40;;;8.00;99.90;;;;;;5014590;28;22994;-70
2023/01/10 09:40:40;;;;;;;13.77;6.63;;;7.80;99.90;;;;;;5009906;28;20207;-71
2023/01/10 09:43:32;;;;;;;9.53;6.67;;;7.70;99.90;;;;;;5017718;28;20220;-69
2023/01/10 09:46:17;;;;;;;13.60;7.47;;;7.50;99.90;;;;;;5012041;28;20226;-71
2023/01/10 09:48:59;;;;;;;13.20;6.27;;;7.40;99.90;;;;;;5010700;28;20192;-72
2023/01/10 09:51:41;;;;;;;11.87;6.07;;;7.40;99.90;;;;;;5011627;28;20196;-72
2023/01/10 09:54:16;;;;;;;11.97;6.70;;;7.50;99.90;;;;;;5014591;28;20565;-71
2023/01/10 09:56:43;;;;;;;8.60;6.93;;;7.60;99.90;;;;;;5036253;28;20419;-71
2023/01/10 09:59:17;;;;;;;11.73;6.50;;;7.80;99.90;;;;;;5035222;28;20203;-71
2023/01/10 10:01:43;;;;;;;11.27;5.80;;;8.00;99.90;;;;;;5032414;28;20215;-70
2023/01/10 10:04:21;;;;;;;9.23;6.03;;;8.20;99.90;;;;;;5037055;28;20208;-69
2023/01/10 10:06:50;;;;;;;11.30;6.07;;;8.20;99.90;;;;;;5027845;28;20222;-71
2023/01/10 10:09:30;;;;;;;8.50;5.60;;;8.30;99.90;;;;;;5035661;28;20209;-72
2023/01/10 10:12:34;;;;;;;12.27;5.90;;;8.30;99.90;;;;;;5034306;28;20640;-71
2023/01/10 10:15:03;;;;;;;8.93;6.50;;;8.20;99.90;;;;;;5033781;28;20744;-72
2023/01/10 10:17:38;;;;;;;11.30;6.07;;;8.20;99.90;;;;;;5032814;28;20195;-71
2023/01/10 10:20:45;;;;;;;8.57;5.90;;;8.10;99.90;;;;;;5035704;28;20268;-70
2023/01/10 10:23:39;;;;;;;14.20;6.40;;;8.00;99.90;;;;;;5015001;28;20248;-71
2023/01/10 10:26:12;;;;;;;5.77;5.23;;;7.90;99.90;;;;;;5021681;28;20222;-70
2023/01/10 10:29:10;;;;;;;11.80;6.90;;;7.80;99.90;;;;;;5035403;28;20199;-72
2023/01/10 10:32:12;;;;;;;9.13;5.60;;;7.70;99.90;;;;;;5029368;28;20282;-72
2023/01/10 10:34:55;;;;;;;8.23;5.10;;;7.70;99.90;;;;;;5031525;28;20212;-71
2023/01/10 10:37:25;;;;;;;9.00;6.60;;;7.70;99.90;;;;;;5031617;28;20207;-71
2023/01/10 10:40:01;;;;;;;9.97;5.23;;;7.80;99.90;;;;;;5022856;28;20251;-71
2023/01/10 10:42:35;;;;;;;9.57;5.03;;;7.70;99.90;;;;;;5031626;28;20232;-70
2023/01/10 10:45:14;;;;;;;9.00;5.00;;;7.70;99.90;;;;;;5028103;28;20299;-71
2023/01/10 10:47:48;;;;;;;12.87;5.43;;;7.60;99.90;;;;;;5025933;28;20309;-71
2023/01/10 10:50:14;;;;;;;13.53;6.37;;;7.60;99.90;;;;;;5021990;28;20226;-72
2023/01/10 10:52:41;;;;;;;15.77;5.63;;;7.70;99.90;;;;;;5031491;28;20700;-74
2023/01/10 10:55:16;;;;;;;8.00;4.33;;;7.80;99.90;;;;;;5036718;28;20194;-69
2023/01/10 10:57:44;;;;;;;10.17;4.80;;;7.90;99.90;;;;;;5031273;28;20259;-74
2023/01/10 11:00:21;;;;;;;9.00;5.17;;;8.10;99.90;;;;;;5021160;28;20207;-70
2023/01/10 11:02:53;;;;;;;6.20;4.20;;;8.10;99.90;;;;;;5024431;28;20244;-70
2023/01/10 11:05:26;;;;;;;13.03;4.37;;;8.10;99.90;;;;;;5011658;28;20310;-72
2023/01/10 11:07:58;;;;;;;8.63;4.13;;;8.00;99.90;;;;;;5015382;28;20203;-72
2023/01/10 11:10:37;;;;;;;8.07;3.90;;;8.10;99.90;;;;;;5008293;28;20188;-72
2023/01/10 11:13:33;;;;;;;8.67;4.17;;;8.20;99.90;;;;;;5008027;28;20887;-72
2023/01/10 11:16:00;;;;;;;6.00;4.27;;;8.50;99.90;;;;;;5010506;28;20811;-72
2023/01/10 11:18:28;;;;;;;8.87;4.00;;;8.70;99.90;;;;;;5009288;28;20676;-71
2023/01/10 11:20:58;;;;;;;7.40;4.20;;;8.70;99.90;;;;;;5007140;28;20269;-72
2023/01/10 11:23:39;;;;;;;8.10;3.93;;;8.90;99.90;;;;;;5010556;28;20204;-69
2023/01/10 11:26:08;;;;;;;9.30;4.03;;;9.00;99.90;;;;;;5002944;28;20217;-71
2023/01/10 11:28:35;;;;;;;11.07;4.27;;;9.20;99.90;;;;;;5018202;28;20200;-70
2023/01/10 11:31:02;;;;;;;9.00;3.70;;;9.30;99.90;;;;;;5017457;28;20268;-70
2023/01/10 11:33:31;;;;;;;19.30;4.73;;;9.50;99.90;;;;;;5006520;28;20196;-70
2023/01/10 11:36:09;;;;;;;10.53;3.53;;;9.70;99.90;;;;;;5013874;28;20267;-70
2023/01/10 11:38:35;;;;;;;11.53;3.40;;;9.70;99.90;;;;;;5017784;28;20200;-71
2023/01/10 11:41:11;;;;;;;9.93;3.20;;;9.80;99.90;;;;;;5009836;28;20469;-69
2023/01/10 11:43:38;;;;;;;5.10;3.00;;;9.70;99.90;;;;;;5017003;28;20210;-70
2023/01/10 11:46:14;;;;;;;9.67;3.87;;;9.50;99.90;;;;;;5016588;28;20211;-69
2023/01/10 11:48:44;;;;;;;10.93;3.83;;;9.40;99.90;;;;;;5014194;28;20664;-70
2023/01/10 11:51:26;;;;;;;8.73;4.23;;;9.40;99.90;;;;;;5013799;28;20318;-69
2023/01/10 11:53:59;;;;;;;9.20;3.90;;;9.50;99.90;;;;;;5013973;28;20304;-70
2023/01/10 11:56:29;;;;;;;6.90;3.70;;;9.70;99.90;;;;;;5011772;28;20189;-69
2023/01/10 11:58:58;;;;;;;7.70;3.30;;;9.70;99.90;;;;;;5013162;28;20204;-70
2023/01/10 12:01:32;;;;;;;7.97;3.53;;;9.50;99.90;;;;;;5021230;28;20673;-70
2023/01/10 12:03:58;;;;;;;11.10;3.73;;;9.50;99.90;;;;;;5014040;28;20203;-70
2023/01/10 12:06:24;;;;;;;6.73;3.47;;;9.60;99.90;;;;;;5012679;28;20218;-69
2023/01/10 12:08:54;;;;;;;6.87;3.43;;;9.80;99.90;;;;;;5021656;28;20264;-70
2023/01/10 12:11:27;;;;;;;9.43;4.17;;;9.80;99.90;;;;;;5039176;28;20426;-70
2023/01/10 12:13:56;;;;;;;13.27;3.30;;;9.70;99.90;;;;;;5034101;28;20706;-68
2023/01/10 12:16:42;;;;;;;8.87;4.20;;;9.70;99.90;;;;;;5024858;28;20203;-69
2023/01/10 12:19:11;;;;;;;11.77;5.03;;;10.00;99.90;;;;;;5032313;28;20216;-79
2023/01/10 12:21:41;;;;;;;11.23;3.37;;;10.40;99.90;;;;;;5024670;28;20219;-76
2023/01/10 12:24:29;;;;;;;4.17;2.80;;;11.00;99.90;;;;;;5036995;28;20207;-73
2023/01/10 12:26:55;;;;;;;10.30;2.70;;;11.20;99.90;;;;;;5033807;28;20299;-81
2023/01/10 12:29:26;;;;;;;6.17;2.63;;;11.20;99.90;;;;;;5038633;28;20261;-77
2023/01/10 12:31:53;;;;;;;7.17;2.97;;;11.30;99.90;;;;;;5039781;28;20283;-76
2023/01/10 12:34:22;;;;;;;5.93;3.57;;;11.60;99.90;;;;;;5041136;28;20223;-77
2023/01/10 12:37:03;;;;;;;6.67;3.07;;;11.50;99.90;;;;;;5021145;28;20207;-69
2023/01/10 12:39:36;;;;;;;12.23;3.07;;;11.20;99.90;;;;;;5037229;28;20205;-72
2023/01/10 12:45:08;;;;;;;7.50;2.63;;;10.30;99.90;;;;;;5038762;28;20718;-70
2023/01/10 12:47:59;;;;;;;6.73;3.70;;;10.20;99.90;;;;;;5028502;28;20291;-71
2023/01/10 12:50:31;;;;;;;10.97;3.13;;;10.00;99.90;;;;;;5027683;28;20457;-70
2023/01/10 12:52:59;;;;;;;12.60;3.10;;;9.90;99.90;;;;;;5023499;28;20285;-71
2023/01/10 12:55:39;;;;;;;10.57;2.97;;;9.70;99.90;;;;;;5028037;28;20195;-70
2023/01/10 12:58:08;;;;;;;9.60;3.40;;;9.60;99.90;;;;;;5034306;28;20204;-69
2023/01/10 13:00:42;;;;;;;11.87;2.77;;;9.50;99.90;;;;;;5028375;28;20231;-70
2023/01/10 13:03:13;;;;;;;8.07;3.20;;;9.30;99.90;;;;;;5032802;28;20286;-70
2023/01/10 13:05:39;;;;;;;7.23;2.27;;;9.20;99.90;;;;;;5026136;28;20219;-69
2023/01/10 13:08:10;;;;;;;8.70;2.77;;;9.10;99.90;;;;;;5028393;28;20200;-72
2023/01/10 13:10:41;;;;;;;9.90;2.53;;;9.10;99.90;;;;;;5030550;28;20206;-70
2023/01/10 13:13:35;;;;;;;8.00;2.93;;;9.00;99.90;;;;;;5027056;28;20265;-70